sensor_id;sensor_type;location;lat;lon;timestamp;pressure;altitude;pressure_sealevel;temperature;humidity
31088;BME280;17745;55.914;37.554;2023-03-03T00:00:48;97696.94;;;2.19;58.51
31088;BME280;17745;55.914;37.554;2023-03-03T00:03:19;97702.62;;;2.16;58.59
31088;BME280;17745;55.914;37.554;2023-03-03T00:05:49;97702.38;;;2.18;58.66
31088;BME280;17745;55.914;37.554;2023-03-03T00:08:21;97680.81;;;2.22;58.58
31088;BME280;17745;55.914;37.554;2023-03-03T00:10:54;97691.56;;;2.26;58.53
31088;BME280;17745;55.914;37.554;2023-03-03T00:13:27;97683.28;;;2.29;58.58
31088;BME280;17745;55.914;37.554;2023-03-03T00:16:12;97683.28;;;2.29;58.68
31088;BME280;17745;55.914;37.554;2023-03-03T00:18:43;97679.84;;;2.28;58.78
31088;BME280;17745;55.914;37.554;2023-03-03T00:21:29;97658.75;;;2.30;58.66
31088;BME280;17745;55.914;37.554;2023-03-03T00:24:18;97673.44;;;2.36;58.68
31088;BME280;17745;55.914;37.554;2023-03-03T00:26:54;97666.50;;;2.42;58.56
31088;BME280;17745;55.914;37.554;2023-03-03T00:29:33;97659.22;;;2.44;58.61
31088;BME280;17745;55.914;37.554;2023-03-03T00:32:21;97661.50;;;2.40;58.72
31088;BME280;17745;55.914;37.554;2023-03-03T00:34:55;97646.84;;;2.39;58.89
31088;BME280;17745;55.914;37.554;2023-03-03T00:37:31;97634.28;;;2.36;58.95
31088;BME280;17745;55.914;37.554;2023-03-03T00:40:26;97640.53;;;2.35;59.15
31088;BME280;17745;55.914;37.554;2023-03-03T00:43:01;97637.22;;;2.40;59.09
31088;BME280;17745;55.914;37.554;2023-03-03T00:45:42;97638.00;;;2.40;59.13
31088;BME280;17745;55.914;37.554;2023-03-03T00:48:20;97627.06;;;2.43;59.04
31088;BME280;17745;55.914;37.554;2023-03-03T00:50:55;97633.41;;;2.48;59.08
31088;BME280;17745;55.914;37.554;2023-03-03T00:53:25;97625.59;;;2.48;59.07
31088;BME280;17745;55.914;37.554;2023-03-03T00:55:54;97629.03;;;2.53;59.02
31088;BME280;17745;55.914;37.554;2023-03-03T00:58:25;97617.88;;;2.58;58.96
31088;BME280;17745;55.914;37.554;2023-03-03T01:00:55;97620.28;;;2.60;59.02
31088;BME280;17745;55.914;37.554;2023-03-03T01:03:25;97620.50;;;2.58;59.10
31088;BME280;17745;55.914;37.554;2023-03-03T01:05:54;97613.63;;;2.52;59.28
31088;BME280;17745;55.914;37.554;2023-03-03T01:08:23;97602.38;;;2.51;59.36
31088;BME280;17745;55.914;37.554;2023-03-03T01:10:53;97616.56;;;2.55;59.38
31088;BME280;17745;55.914;37.554;2023-03-03T01:13:28;97613.94;;;2.55;59.33
31088;BME280;17745;55.914;37.554;2023-03-03T01:16:00;97613.13;;;2.55;59.46
31088;BME280;17745;55.914;37.554;2023-03-03T01:18:35;97602.91;;;2.53;59.56
31088;BME280;17745;55.914;37.554;2023-03-03T01:21:18;97609.72;;;2.54;59.58
31088;BME280;17745;55.914;37.554;2023-03-03T01:23:47;97610.47;;;2.50;59.70
31088;BME280;17745;55.914;37.554;2023-03-03T01:26:15;97601.81;;;2.49;59.78
31088;BME280;17745;55.914;37.554;2023-03-03T01:28:48;97602.28;;;2.46;59.86
31088;BME280;17745;55.914;37.554;2023-03-03T01:31:17;97594.94;;;2.43;60.03
31088;BME280;17745;55.914;37.554;2023-03-03T01:33:48;97594.94;;;2.43;60.07
31088;BME280;17745;55.914;37.554;2023-03-03T01:36:27;97600.16;;;2.43;60.10
31088;BME280;17745;55.914;37.554;2023-03-03T01:38:58;97601.75;;;2.44;60.13
31088;BME280;17745;55.914;37.554;2023-03-03T01:41:31;97598.31;;;2.43;60.20
31088;BME280;17745;55.914;37.554;2023-03-03T01:44:01;97603.00;;;2.41;60.34
31088;BME280;17745;55.914;37.554;2023-03-03T01:46:50;97590.25;;;2.45;60.19
31088;BME280;17745;55.914;37.554;2023-03-03T01:49:23;97582.50;;;2.50;60.26
31088;BME280;17745;55.914;37.554;2023-03-03T01:52:11;97586.94;;;2.50;60.27
31088;BME280;17745;55.914;37.554;2023-03-03T01:54:42;97577.75;;;2.47;60.30
31088;BME280;17745;55.914;37.554;2023-03-03T01:57:16;97582.38;;;2.40;60.45
31088;BME280;17745;55.914;37.554;2023-03-03T01:59:48;97578.94;;;2.39;60.59
31088;BME280;17745;55.914;37.554;2023-03-03T02:02:18;97572.78;;;2.46;60.46
31088;BME280;17745;55.914;37.554;2023-03-03T02:04:49;97572.03;;;2.50;60.28
31088;BME280;17745;55.914;37.554;2023-03-03T02:07:28;97574.97;;;2.54;60.23
31088;BME280;17745;55.914;37.554;2023-03-03T02:10:12;97579.50;;;2.59;60.30
31088;BME280;17745;55.914;37.554;2023-03-03T02:12:57;97563.00;;;2.58;60.30
31088;BME280;17745;55.914;37.554;2023-03-03T02:15:45;97575.84;;;2.60;60.16
31088;BME280;17745;55.914;37.554;2023-03-03T02:18:30;97565.88;;;2.56;60.32
31088;BME280;17745;55.914;37.554;2023-03-03T02:21:08;97553.84;;;2.55;60.26
31088;BME280;17745;55.914;37.554;2023-03-03T02:24:01;97543.41;;;2.55;60.35
31088;BME280;17745;55.914;37.554;2023-03-03T02:26:39;97541.56;;;2.56;60.35
31088;BME280;17745;55.914;37.554;2023-03-03T02:29:11;97541.78;;;2.54;60.42
31088;BME280;17745;55.914;37.554;2023-03-03T02:31:42;97532.94;;;2.55;60.35
31088;BME280;17745;55.914;37.554;2023-03-03T02:34:11;97539.75;;;2.56;60.49
31088;BME280;17745;55.914;37.554;2023-03-03T02:36:41;97536.88;;;2.58;60.56
31088;BME280;17745;55.914;37.554;2023-03-03T02:39:13;97538.72;;;2.57;60.55
31088;BME280;17745;55.914;37.554;2023-03-03T02:41:49;97544.00;;;2.63;60.58
31088;BME280;17745;55.914;37.554;2023-03-03T02:44:23;97538.63;;;2.69;60.41
31088;BME280;17745;55.914;37.554;2023-03-03T02:46:53;97541.50;;;2.73;60.37
31088;BME280;17745;55.914;37.554;2023-03-03T02:49:25;97535.25;;;2.74;60.45
31088;BME280;17745;55.914;37.554;2023-03-03T02:51:58;97529.84;;;2.81;60.33
31088;BME280;17745;55.914;37.554;2023-03-03T02:54:28;97528.09;;;2.86;60.12
31088;BME280;17745;55.914;37.554;2023-03-03T02:57:00;97526.03;;;2.89;60.09
31088;BME280;17745;55.914;37.554;2023-03-03T02:59:28;97530.72;;;2.86;60.13
31088;BME280;17745;55.914;37.554;2023-03-03T03:02:00;97527.00;;;2.82;60.25
31088;BME280;17745;55.914;37.554;2023-03-03T03:04:33;97535.16;;;2.86;60.30
31088;BME280;17745;55.914;37.554;2023-03-03T03:07:17;97538.06;;;2.90;60.33
31088;BME280;17745;55.914;37.554;2023-03-03T03:09:48;97527.75;;;3.00;60.06
31088;BME280;17745;55.914;37.554;2023-03-03T03:12:35;97544.69;;;2.97;60.16
31088;BME280;17745;55.914;37.554;2023-03-03T03:15:05;97541.00;;;2.93;60.25
31088;BME280;17745;55.914;37.554;2023-03-03T03:17:42;97527.38;;;2.91;60.30
31088;BME280;17745;55.914;37.554;2023-03-03T03:22:52;97525.84;;;2.95;60.24
31088;BME280;17745;55.914;37.554;2023-03-03T03:25:22;97521.41;;;2.96;60.27
31088;BME280;17745;55.914;37.554;2023-03-03T03:31:31;97522.03;;;3.03;60.16
31088;BME280;17745;55.914;37.554;2023-03-03T03:34:33;97514.13;;;2.98;60.27
31088;BME280;17745;55.914;37.554;2023-03-03T03:37:20;97518.06;;;3.00;60.21
31088;BME280;17745;55.914;37.554;2023-03-03T03:40:08;97506.75;;;2.95;60.32
31088;BME280;17745;55.914;37.554;2023-03-03T03:42:42;97513.12;;;3.04;60.17
31088;BME280;17745;55.914;37.554;2023-03-03T03:45:15;97513.19;;;3.09;60.08
31088;BME280;17745;55.914;37.554;2023-03-03T03:47:48;97505.34;;;3.09;60.05
31088;BME280;17745;55.914;37.554;2023-03-03T03:50:26;97506.34;;;3.03;60.21
31088;BME280;17745;55.914;37.554;2023-03-03T03:52:54;97508.31;;;2.96;60.41
31088;BME280;17745;55.914;37.554;2023-03-03T03:55:29;97494.91;;;2.87;60.53
31088;BME280;17745;55.914;37.554;2023-03-03T04:01:21;97492.50;;;2.80;60.80
31088;BME280;17745;55.914;37.554;2023-03-03T04:10:48;97483.06;;;2.79;60.85
31088;BME280;17745;55.914;37.554;2023-03-03T04:13:28;97481.53;;;2.83;60.74
31088;BME280;17745;55.914;37.554;2023-03-03T04:16:00;97481.22;;;2.80;60.74
31088;BME280;17745;55.914;37.554;2023-03-03T04:18:34;97487.38;;;2.68;61.02
31088;BME280;17745;55.914;37.554;2023-03-03T04:21:14;97481.91;;;2.70;60.96
31088;BME280;17745;55.914;37.554;2023-03-03T04:23:48;97475.59;;;2.66;61.22
31088;BME280;17745;55.914;37.554;2023-03-03T04:26:27;97480.75;;;2.61;61.22
31088;BME280;17745;55.914;37.554;2023-03-03T04:29:05;97475.00;;;2.59;61.36
31088;BME280;17745;55.914;37.554;2023-03-03T04:31:48;97474.72;;;2.60;61.27
31088;BME280;17745;55.914;37.554;2023-03-03T04:34:37;97473.94;;;2.60;61.40
31088;BME280;17745;55.914;37.554;2023-03-03T04:37:36;97470.53;;;2.59;61.38
31088;BME280;17745;55.914;37.554;2023-03-03T04:40:41;97474.66;;;2.55;61.52
31088;BME280;17745;55.914;37.554;2023-03-03T04:46:53;97470.78;;;2.57;61.60
31088;BME280;17745;55.914;37.554;2023-03-03T04:49:43;97476.78;;;2.58;61.52
31088;BME280;17745;55.914;37.554;2023-03-03T04:56:59;97466.28;;;2.53;61.74
31088;BME280;17745;55.914;37.554;2023-03-03T05:00:03;97476.25;;;2.56;61.66
31088;BME280;17745;55.914;37.554;2023-03-03T05:44:45;97484.34;;;2.77;61.64
31088;BME280;17745;55.914;37.554;2023-03-03T05:47:25;97486.16;;;2.76;61.63
31088;BME280;17745;55.914;37.554;2023-03-03T05:50:17;97490.72;;;2.86;61.50
31088;BME280;17745;55.914;37.554;2023-03-03T05:52:58;97485.72;;;2.84;61.32
31088;BME280;17745;55.914;37.554;2023-03-03T05:56:19;97490.72;;;2.86;61.35
31088;BME280;17745;55.914;37.554;2023-03-03T06:02:52;97488.88;;;2.86;61.16
31088;BME280;17745;55.914;37.554;2023-03-03T06:05:43;97500.37;;;2.85;61.14
31088;BME280;17745;55.914;37.554;2023-03-03T06:08:37;97499.13;;;2.88;61.20
31088;BME280;17745;55.914;37.554;2023-03-03T06:11:12;97499.66;;;2.90;61.22
31088;BME280;17745;55.914;37.554;2023-03-03T06:14:14;97502.09;;;2.97;61.24
31088;BME280;17745;55.914;37.554;2023-03-03T06:17:28;97511.56;;;3.03;61.11
31088;BME280;17745;55.914;37.554;2023-03-03T06:24:12;97499.25;;;3.26;61.27
31088;BME280;17745;55.914;37.554;2023-03-03T06:27:35;97506.81;;;3.55;60.70
31088;BME280;17745;55.914;37.554;2023-03-03T06:30:38;97502.75;;;3.64;60.47
31088;BME280;17745;55.914;37.554;2023-03-03T06:33:17;97498.28;;;3.65;60.25
31088;BME280;17745;55.914;37.554;2023-03-03T06:36:01;97505.94;;;3.71;60.26
31088;BME280;17745;55.914;37.554;2023-03-03T06:39:11;97501.22;;;3.74;60.31
31088;BME280;17745;55.914;37.554;2023-03-03T06:41:59;97504.00;;;3.62;60.36
31088;BME280;17745;55.914;37.554;2023-03-03T06:44:43;97507.72;;;3.66;59.93
31088;BME280;17745;55.914;37.554;2023-03-03T06:51:21;97518.28;;;3.49;60.13
31088;BME280;17745;55.914;37.554;2023-03-03T06:54:10;97499.13;;;3.43;59.99
31088;BME280;17745;55.914;37.554;2023-03-03T06:57:12;97515.03;;;3.36;60.10
31088;BME280;17745;55.914;37.554;2023-03-03T07:00:14;97523.37;;;3.33;60.06
31088;BME280;17745;55.914;37.554;2023-03-03T07:02:58;97512.62;;;3.29;59.79
31088;BME280;17745;55.914;37.554;2023-03-03T07:05:49;97532.69;;;3.24;59.71
31088;BME280;17745;55.914;37.554;2023-03-03T07:08:35;97512.19;;;3.15;59.90
31088;BME280;17745;55.914;37.554;2023-03-03T07:11:18;97515.72;;;3.26;59.67
31088;BME280;17745;55.914;37.554;2023-03-03T07:14:09;97522.06;;;3.31;59.61
31088;BME280;17745;55.914;37.554;2023-03-03T07:16:51;97525.44;;;3.31;59.43
31088;BME280;17745;55.914;37.554;2023-03-03T07:19:31;97523.56;;;3.26;59.43
31088;BME280;17745;55.914;37.554;2023-03-03T07:22:14;97531.63;;;3.20;59.54
31088;BME280;17745;55.914;37.554;2023-03-03T07:25:11;97518.00;;;3.18;59.62
31088;BME280;17745;55.914;37.554;2023-03-03T07:34:21;97518.75;;;3.40;59.06
31088;BME280;17745;55.914;37.554;2023-03-03T07:37:11;97519.34;;;3.48;58.80
31088;BME280;17745;55.914;37.554;2023-03-03T07:39:52;97539.53;;;3.52;58.79
31088;BME280;17745;55.914;37.554;2023-03-03T07:42:27;97536.06;;;3.47;58.70
31088;BME280;17745;55.914;37.554;2023-03-03T07:45:22;97522.88;;;3.36;58.85
31088;BME280;17745;55.914;37.554;2023-03-03T07:48:03;97524.53;;;3.42;58.83
31088;BME280;17745;55.914;37.554;2023-03-03T07:50:40;97521.44;;;3.51;58.85
31088;BME280;17745;55.914;37.554;2023-03-03T07:53:14;97526.09;;;3.71;58.61
31088;BME280;17745;55.914;37.554;2023-03-03T07:55:52;97529.47;;;3.71;58.62
31088;BME280;17745;55.914;37.554;2023-03-03T07:58:33;97532.09;;;3.44;58.45
31088;BME280;17745;55.914;37.554;2023-03-03T08:01:37;97534.09;;;3.59;57.97
31088;BME280;17745;55.914;37.554;2023-03-03T08:04:14;97532.63;;;3.74;57.92
31088;BME280;17745;55.914;37.554;2023-03-03T08:06:51;97538.63;;;3.69;57.77
31088;BME280;17745;55.914;37.554;2023-03-03T08:09:36;97541.94;;;3.59;57.96
31088;BME280;17745;55.914;37.554;2023-03-03T08:12:30;97536.22;;;3.62;58.27
31088;BME280;17745;55.914;37.554;2023-03-03T08:15:23;97543.06;;;3.68;58.25
31088;BME280;17745;55.914;37.554;2023-03-03T08:18:00;97534.88;;;3.60;58.37
31088;BME280;17745;55.914;37.554;2023-03-03T08:20:54;97538.03;;;3.62;58.47
31088;BME280;17745;55.914;37.554;2023-03-03T08:23:39;97536.78;;;3.69;58.27
31088;BME280;17745;55.914;37.554;2023-03-03T08:26:13;97544.91;;;3.68;58.24
31088;BME280;17745;55.914;37.554;2023-03-03T08:28:46;97535.75;;;3.70;58.44
31088;BME280;17745;55.914;37.554;2023-03-03T08:31:34;97544.06;;;3.90;58.12
31088;BME280;17745;55.914;37.554;2023-03-03T08:34:07;97542.53;;;3.99;57.70
31088;BME280;17745;55.914;37.554;2023-03-03T08:36:46;97547.94;;;3.87;57.64
31088;BME280;17745;55.914;37.554;2023-03-03T08:39:30;97549.34;;;4.00;57.28
31088;BME280;17745;55.914;37.554;2023-03-03T08:42:31;97540.13;;;3.92;57.29
31088;BME280;17745;55.914;37.554;2023-03-03T08:45:09;97548.06;;;4.03;57.33
31088;BME280;17745;55.914;37.554;2023-03-03T08:47:37;97542.41;;;4.16;57.37
31088;BME280;17745;55.914;37.554;2023-03-03T08:50:05;97552.44;;;4.24;57.25
31088;BME280;17745;55.914;37.554;2023-03-03T08:52:42;97549.09;;;4.34;57.20
31088;BME280;17745;55.914;37.554;2023-03-03T08:55:14;97547.19;;;4.24;57.25
31088;BME280;17745;55.914;37.554;2023-03-03T08:57:48;97554.03;;;4.31;57.01
31088;BME280;17745;55.914;37.554;2023-03-03T09:00:20;97561.87;;;4.31;56.95
31088;BME280;17745;55.914;37.554;2023-03-03T09:02:56;97553.53;;;4.34;57.15
31088;BME280;17745;55.914;37.554;2023-03-03T09:05:37;97560.97;;;4.52;57.14
31088;BME280;17745;55.914;37.554;2023-03-03T09:08:07;97545.94;;;4.85;57.05
31088;BME280;17745;55.914;37.554;2023-03-03T09:10:38;97557.88;;;5.14;56.60
31088;BME280;17745;55.914;37.554;2023-03-03T09:13:12;97550.81;;;5.30;56.34
31088;BME280;17745;55.914;37.554;2023-03-03T09:15:41;97553.50;;;5.61;56.32
31088;BME280;17745;55.914;37.554;2023-03-03T09:18:17;97548.59;;;6.17;55.93
31088;BME280;17745;55.914;37.554;2023-03-03T09:21:00;97550.88;;;6.65;55.15
31088;BME280;17745;55.914;37.554;2023-03-03T09:23:34;97543.25;;;6.63;55.27
31088;BME280;17745;55.914;37.554;2023-03-03T09:26:22;97540.34;;;6.60;55.15
31088;BME280;17745;55.914;37.554;2023-03-03T09:28:57;97549.81;;;6.66;54.41
31088;BME280;17745;55.914;37.554;2023-03-03T09:31:35;97541.47;;;6.43;54.54
31088;BME280;17745;55.914;37.554;2023-03-03T09:34:17;97548.59;;;6.22;54.33
31088;BME280;17745;55.914;37.554;2023-03-03T09:37:17;97557.75;;;5.88;54.77
31088;BME280;17745;55.914;37.554;2023-03-03T09:39:56;97556.16;;;5.77;55.11
31088;BME280;17745;55.914;37.554;2023-03-03T09:42:51;97552.75;;;5.76;55.11
31088;BME280;17745;55.914;37.554;2023-03-03T09:45:44;97556.94;;;5.87;54.69
31088;BME280;17745;55.914;37.554;2023-03-03T09:48:49;97557.47;;;5.84;54.43
31088;BME280;17745;55.914;37.554;2023-03-03T09:52:08;97554.56;;;5.55;54.71
31088;BME280;17745;55.914;37.554;2023-03-03T09:55:08;97566.56;;;5.30;54.54
31088;BME280;17745;55.914;37.554;2023-03-03T10:38:32;97552.63;;;5.19;54.06
31088;BME280;17745;55.914;37.554;2023-03-03T10:45:29;97544.81;;;5.50;53.22
31088;BME280;17745;55.914;37.554;2023-03-03T11:25:27;97566.12;;;5.75;52.89
31088;BME280;17745;55.914;37.554;2023-03-03T11:39:22;97570.25;;;5.34;53.54
31088;BME280;17745;55.914;37.554;2023-03-03T12:35:38;97564.53;;;5.53;50.89
31088;BME280;17745;55.914;37.554;2023-03-03T12:41:46;97569.34;;;5.03;51.06
31088;BME280;17745;55.914;37.554;2023-03-03T12:45:47;97566.34;;;4.73;51.53
31088;BME280;17745;55.914;37.554;2023-03-03T13:32:39;97578.25;;;4.96;51.45
31088;BME280;17745;55.914;37.554;2023-03-03T13:35:44;97580.91;;;5.01;51.47
31088;BME280;17745;55.914;37.554;2023-03-03T13:38:30;97576.19;;;5.09;51.16
31088;BME280;17745;55.914;37.554;2023-03-03T13:41:13;97569.13;;;5.09;51.20
31088;BME280;17745;55.914;37.554;2023-03-03T13:43:59;97575.59;;;5.81;50.56
31088;BME280;17745;55.914;37.554;2023-03-03T13:46:44;97573.12;;;6.98;48.54
31088;BME280;17745;55.914;37.554;2023-03-03T13:49:50;97581.84;;;7.94;46.94
31088;BME280;17745;55.914;37.554;2023-03-03T13:53:34;97570.69;;;8.37;46.39
31088;BME280;17745;55.914;37.554;2023-03-03T13:56:43;97576.81;;;8.62;45.78
31088;BME280;17745;55.914;37.554;2023-03-03T13:59:45;97565.03;;;8.20;46.16
31088;BME280;17745;55.914;37.554;2023-03-03T14:10:05;97554.50;;;6.90;47.87
31088;BME280;17745;55.914;37.554;2023-03-03T14:13:05;97557.75;;;6.40;48.76
31088;BME280;17745;55.914;37.554;2023-03-03T14:16:13;97555.13;;;5.93;48.87
31088;BME280;17745;55.914;37.554;2023-03-03T14:19:50;97566.88;;;5.49;49.32
31088;BME280;17745;55.914;37.554;2023-03-03T14:23:43;97561.75;;;5.01;49.81
